Terminal Aerodrome Forecast
Issued by NWS

Home | Current Version | Previous Version | Text Only | Print | Product List | Glossary On
Versions: 1 2 3 4 5 6 7 8 9 10 11 12 13 14 15 16 17 18 19 20 21
000
FTUS46 KOTX 231151 CCA
TAFPUW
TAF COR
KPUW 231151Z 2312/2412 10009KT 6SM PRFG SCT001 BKN150
      TEMPO 2313/2315 2SM BR BKN002
     FM231800 17005KT 6SM BR SCT002 OVC005
     FM232100 28005KT P6SM BKN006 BKN200
     FM240200 29005KT 5SM BR BKN008
     FM240700 27004KT 2SM BR VCSH OVC003=

USA.gov is the U.S. government's official web portal to all federal, state and local government web resources and services.